Time;durP1;ratioP1;P1;durP2;ratioP2;P2;SDS_P1;SDS_P2;PMS_P1;PMS_P2;Temp;Humidity;BMP_temperature;BMP_pressure;BME280_temperature;BME280_humidity;BME280_pressure;Samples;Min_cycle;Max_cycle;Signal;HPM_P1;HPM_P2
2023/12/04 00:00:17;;;;;;;;;;;;;;;;;;5058396;28;19947;-75
2023/12/04 00:02:44;;;;;;;;;;;;;;;;;;5066748;28;20032;-74
2023/12/04 00:05:10;;;;;;;;;;;;;;;;;;5061393;28;19929;-77
2023/12/04 00:07:37;;;;;;;;;;;;;;;;;;5060358;28;20354;-77
2023/12/04 00:10:03;;;;;;;;;;;;;;;;;;5069755;28;19960;-76
2023/12/04 00:12:29;;;;;;;;;;;;;;;;;;5063154;28;19963;-78
2023/12/04 00:14:56;;;;;;;;;;;;;;;;;;5056296;28;19975;-76
2023/12/04 00:17:22;;;;;;;;;;;;;;;;;;5056230;28;19936;-76
2023/12/04 00:19:49;;;;;;;;;;;;;;;;;;5058536;28;19929;-77
2023/12/04 00:22:15;;;;;;;;;;;;;;;;;;5059380;28;19956;-76
2023/12/04 00:24:42;;;;;;;;;;;;;;;;;;5072278;28;19929;-74
2023/12/04 00:27:08;;;;;;;;;;;;;;;;;;5067048;28;19967;-75
2023/12/04 00:29:34;;;;;;;;;;;;;;;;;;5065876;28;19982;-76
2023/12/04 00:32:01;;;;;;;;;;;;;;;;;;5063763;28;19929;-76
2023/12/04 00:34:27;;;;;;;;;;;;;;;;;;5071329;28;19925;-77
2023/12/04 00:36:54;;;;;;;;;;;;;;;;;;5062949;28;20368;-77
2023/12/04 00:39:20;;;;;;;;;;;;;;;;;;5066130;28;19956;-76
2023/12/04 00:41:46;;;;;;;;;;;;;;;;;;5056744;28;19933;-77
2023/12/04 00:44:13;;;;;;;;;;;;;;;;;;5071208;28;19956;-76
2023/12/04 00:46:39;;;;;;;;;;;;;;;;;;5063969;28;20312;-76
2023/12/04 00:49:06;;;;;;;;;;;;;;;;;;5055013;28;19928;-75
2023/12/04 00:51:32;;;;;;;;;;;;;;;;;;5071186;28;20300;-75
2023/12/04 00:53:59;;;;;;;;;;;;;;;;;;5064998;28;19933;-74
2023/12/04 00:56:25;;;;;;;;;;;;;;;;;;5063589;28;20038;-77
2023/12/04 00:58:52;;;;;;;;;;;;;;;;;;5064597;28;20376;-75
2023/12/04 01:01:18;;;;;;;;;;;;;;;;;;5049622;28;19925;-76
2023/12/04 01:03:46;;;;;;;;;;;;;;;;;;5060233;28;19925;-75
2023/12/04 01:06:12;;;;;;;;;;;;;;;;;;5058846;28;19932;-75
2023/12/04 01:08:39;;;;;;;;;;;;;;;;;;5053774;28;19924;-76
2023/12/04 01:11:05;;;;;;;;;;;;;;;;;;5072498;28;20019;-76
2023/12/04 01:13:31;;;;;;;;;;;;;;;;;;5067200;28;19975;-76
2023/12/04 01:15:58;;;;;;;;;;;;;;;;;;5059912;28;19963;-76
2023/12/04 01:18:24;;;;;;;;;;;;;;;;;;5063311;28;20339;-75
2023/12/04 01:20:51;;;;;;;;;;;;;;;;;;5055033;28;19925;-76
2023/12/04 01:23:17;;;;;;;;;;;;;;;;;;5065758;28;19947;-75
2023/12/04 01:25:44;;;;;;;;;;;;;;;;;;5063102;28;19968;-75
2023/12/04 01:28:11;;;;;;;;;;;;;;;;;;5066297;28;19929;-75
2023/12/04 01:30:37;;;;;;;;;;;;;;;;;;5070065;28;19928;-73
2023/12/04 01:33:04;;;;;;;;;;;;;;;;;;5062457;28;20278;-73
2023/12/04 01:35:30;;;;;;;;;;;;;;;;;;5065754;28;19924;-73
2023/12/04 01:37:56;;;;;;;;;;;;;;;;;;5055198;28;19925;-75
2023/12/04 01:40:23;;;;;;;;;;;;;;;;;;5070577;28;19929;-75
2023/12/04 01:42:49;;;;;;;;;;;;;;;;;;5063513;28;19944;-73
2023/12/04 01:45:16;;;;;;;;;;;;;;;;;;5062186;28;19956;-73
2023/12/04 01:47:42;;;;;;;;;;;;;;;;;;5071836;28;19931;-74
2023/12/04 01:50:10;;;;;;;;;;;;;;;;;;5063422;28;19928;-72
2023/12/04 01:52:36;;;;;;;;;;;;;;;;;;5069732;28;19931;-73
2023/12/04 01:55:02;;;;;;;;;;;;;;;;;;5069812;28;19932;-72
2023/12/04 01:57:29;;;;;;;;;;;;;;;;;;5061348;28;20343;-73
2023/12/04 01:59:55;;;;;;;;;;;;;;;;;;5069916;28;19940;-72
2023/12/04 02:02:22;;;;;;;;;;;;;;;;;;5069399;28;19928;-73
2023/12/04 02:04:48;;;;;;;;;;;;;;;;;;5070469;28;19924;-74
2023/12/04 02:07:14;;;;;;;;;;;;;;;;;;5060452;28;19925;-73
2023/12/04 02:09:41;;;;;;;;;;;;;;;;;;5063345;28;19925;-73
2023/12/04 02:12:07;;;;;;;;;;;;;;;;;;5064638;28;20023;-75
2023/12/04 02:14:34;;;;;;;;;;;;;;;;;;5062938;28;19928;-73
2023/12/04 02:17:00;;;;;;;;;;;;;;;;;;5062736;28;19924;-74
2023/12/04 02:19:29;;;;;;;;;;;;;;;;;;5066422;28;19932;-73
2023/12/04 02:21:56;;;;;;;;;;;;;;;;;;5062548;28;19931;-73
2023/12/04 02:24:22;;;;;;;;;;;;;;;;;;5059463;28;20455;-72
2023/12/04 02:26:49;;;;;;;;;;;;;;;;;;5064268;28;19925;-72
2023/12/04 02:29:15;;;;;;;;;;;;;;;;;;5059913;28;20134;-73
2023/12/04 02:31:42;;;;;;;;;;;;;;;;;;5058375;28;20008;-72
2023/12/04 02:34:08;;;;;;;;;;;;;;;;;;5063996;28;19932;-74
2023/12/04 02:36:34;;;;;;;;;;;;;;;;;;5051570;28;19924;-74
2023/12/04 02:39:01;;;;;;;;;;;;;;;;;;5061240;28;20791;-72
2023/12/04 02:41:27;;;;;;;;;;;;;;;;;;5062882;28;19924;-75
2023/12/04 02:43:53;;;;;;;;;;;;;;;;;;5068792;28;19925;-72
2023/12/04 02:46:20;;;;;;;;;;;;;;;;;;5060857;28;19929;-73
2023/12/04 02:48:46;;;;;;;;;;;;;;;;;;5066398;28;20022;-72
2023/12/04 02:51:16;;;;;;;;;;;;;;;;;;5060683;28;19962;-72
2023/12/04 02:53:42;;;;;;;;;;;;;;;;;;5051086;28;19936;-74
2023/12/04 02:56:09;;;;;;;;;;;;;;;;;;5062869;28;19968;-74
2023/12/04 02:58:35;;;;;;;;;;;;;;;;;;5055166;28;20314;-74
2023/12/04 03:01:01;;;;;;;;;;;;;;;;;;5059439;28;19925;-74
2023/12/04 03:03:28;;;;;;;;;;;;;;;;;;5062070;28;19955;-74
2023/12/04 03:05:54;;;;;;;;;;;;;;;;;;5065136;28;19924;-73
2023/12/04 03:08:21;;;;;;;;;;;;;;;;;;5059576;28;19933;-73
2023/12/04 03:10:47;;;;;;;;;;;;;;;;;;5069256;28;19931;-72
2023/12/04 03:13:13;;;;;;;;;;;;;;;;;;5059848;28;19935;-75
2023/12/04 03:15:40;;;;;;;;;;;;;;;;;;5060538;28;19928;-74
2023/12/04 03:18:06;;;;;;;;;;;;;;;;;;5064296;28;19928;-74
2023/12/04 03:20:35;;;;;;;;;;;;;;;;;;5062546;28;20362;-72
2023/12/04 03:23:01;;;;;;;;;;;;;;;;;;5063518;28;20301;-72
2023/12/04 03:25:28;;;;;;;;;;;;;;;;;;5062469;28;19928;-74
2023/12/04 03:27:54;;;;;;;;;;;;;;;;;;5064312;28;19929;-73
2023/12/04 03:30:20;;;;;;;;;;;;;;;;;;5061524;28;20393;-73
2023/12/04 03:32:47;;;;;;;;;;;;;;;;;;5061289;28;20004;-73
2023/12/04 03:35:13;;;;;;;;;;;;;;;;;;5061766;28;20425;-74
2023/12/04 03:37:40;;;;;;;;;;;;;;;;;;5064983;28;20018;-73
2023/12/04 03:40:06;;;;;;;;;;;;;;;;;;5067016;28;19931;-73
2023/12/04 03:42:33;;;;;;;;;;;;;;;;;;5053230;28;19928;-73
2023/12/04 03:44:59;;;;;;;;;;;;;;;;;;5059983;28;20300;-74
2023/12/04 03:47:25;;;;;;;;;;;;;;;;;;5064063;28;20289;-72
2023/12/04 03:49:52;;;;;;;;;;;;;;;;;;5062581;28;19932;-73
2023/12/04 03:52:18;;;;;;;;;;;;;;;;;;5057183;28;19928;-71
2023/12/04 03:54:45;;;;;;;;;;;;;;;;;;5060069;28;19970;-72
2023/12/04 03:57:12;;;;;;;;;;;;;;;;;;5059306;28;19929;-72
2023/12/04 03:59:38;;;;;;;;;;;;;;;;;;5065449;28;19932;-72
2023/12/04 04:02:05;;;;;;;;;;;;;;;;;;5072452;28;19933;-71
2023/12/04 04:04:32;;;;;;;;;;;;;;;;;;5065904;28;20646;-72
2023/12/04 04:06:58;;;;;;;;;;;;;;;;;;5048011;28;19928;-73
2023/12/04 04:09:25;;;;;;;;;;;;;;;;;;5065814;28;20017;-73
2023/12/04 04:11:51;;;;;;;;;;;;;;;;;;5064399;28;19925;-72
2023/12/04 04:14:17;;;;;;;;;;;;;;;;;;5071854;28;20506;-72
2023/12/04 04:16:44;;;;;;;;;;;;;;;;;;5064904;28;19924;-72
2023/12/04 04:19:10;;;;;;;;;;;;;;;;;;5064998;28;20019;-72
2023/12/04 04:21:39;;;;;;;;;;;;;;;;;;5068159;28;20023;-71
2023/12/04 04:24:06;;;;;;;;;;;;;;;;;;5065593;28;19924;-72
2023/12/04 04:26:32;;;;;;;;;;;;;;;;;;5063231;28;19932;-73
2023/12/04 04:28:58;;;;;;;;;;;;;;;;;;5069686;28;19932;-73
2023/12/04 04:31:25;;;;;;;;;;;;;;;;;;5064069;28;19924;-73
2023/12/04 04:33:51;;;;;;;;;;;;;;;;;;5063955;28;20693;-74
2023/12/04 04:36:18;;;;;;;;;;;;;;;;;;5065996;28;20439;-72
2023/12/04 04:38:44;;;;;;;;;;;;;;;;;;5067869;28;20448;-74
2023/12/04 04:41:10;;;;;;;;;;;;;;;;;;5055684;28;19929;-73
2023/12/04 04:43:37;;;;;;;;;;;;;;;;;;5062913;28;20013;-74
2023/12/04 04:46:03;;;;;;;;;;;;;;;;;;5071586;28;19959;-73
2023/12/04 04:48:30;;;;;;;;;;;;;;;;;;5063781;28;20274;-75
2023/12/04 04:50:56;;;;;;;;;;;;;;;;;;5073805;28;19925;-72
2023/12/04 04:53:22;;;;;;;;;;;;;;;;;;5074807;28;19977;-75
2023/12/04 04:55:52;;;;;;;;;;;;;;;;;;5063462;28;20007;-72
2023/12/04 04:58:18;;;;;;;;;;;;;;;;;;5064758;28;19974;-72
2023/12/04 05:00:44;;;;;;;;;;;;;;;;;;5071037;28;20341;-71
2023/12/04 05:03:11;;;;;;;;;;;;;;;;;;5064784;28;19933;-71
2023/12/04 05:05:37;;;;;;;;;;;;;;;;;;5067228;28;19924;-72
2023/12/04 05:08:03;;;;;;;;;;;;;;;;;;5055067;28;19925;-72
2023/12/04 05:10:30;;;;;;;;;;;;;;;;;;5069007;28;19948;-74
2023/12/04 05:12:56;;;;;;;;;;;;;;;;;;5064624;28;20317;-74
2023/12/04 05:15:23;;;;;;;;;;;;;;;;;;5070442;28;19986;-73
2023/12/04 05:17:49;;;;;;;;;;;;;;;;;;5066793;28;20405;-73
2023/12/04 05:20:15;;;;;;;;;;;;;;;;;;5071381;28;19928;-74
2023/12/04 05:22:42;;;;;;;;;;;;;;;;;;5068039;28;20380;-72
2023/12/04 05:25:08;;;;;;;;;;;;;;;;;;5054450;28;20469;-71
2023/12/04 05:27:35;;;;;;;;;;;;;;;;;;5057621;28;19929;-74
2023/12/04 05:30:02;;;;;;;;;;;;;;;;;;5048572;28;19963;-72
2023/12/04 05:32:28;;;;;;;;;;;;;;;;;;5060852;28;20015;-74
2023/12/04 05:34:54;;;;;;;;;;;;;;;;;;5063405;28;20390;-72
2023/12/04 05:37:21;;;;;;;;;;;;;;;;;;5062466;28;19928;-73
2023/12/04 05:39:47;;;;;;;;;;;;;;;;;;5054307;28;19925;-74
2023/12/04 05:42:14;;;;;;;;;;;;;;;;;;5053284;28;20023;-73
2023/12/04 05:44:40;;;;;;;;;;;;;;;;;;5063540;28;19957;-72
2023/12/04 05:47:08;;;;;;;;;;;;;;;;;;5054046;28;19928;-73
2023/12/04 05:49:34;;;;;;;;;;;;;;;;;;5070294;28;19925;-71
2023/12/04 05:52:01;;;;;;;;;;;;;;;;;;5059928;28;19932;-73
2023/12/04 05:54:27;;;;;;;;;;;;;;;;;;5063940;28;20377;-71
2023/12/04 05:56:54;;;;;;;;;;;;;;;;;;5065791;28;20296;-72
2023/12/04 05:59:20;;;;;;;;;;;;;;;;;;5061417;28;19933;-75
2023/12/04 06:01:46;;;;;;;;;;;;;;;;;;5071551;28;19935;-73
2023/12/04 06:04:13;;;;;;;;;;;;;;;;;;5058551;28;19925;-73
2023/12/04 06:06:39;;;;;;;;;;;;;;;;;;5072562;28;19925;-72
2023/12/04 06:09:06;;;;;;;;;;;;;;;;;;5061512;28;20019;-72
2023/12/04 06:11:32;;;;;;;;;;;;;;;;;;5064918;28;19986;-72
2023/12/04 06:13:59;;;;;;;;;;;;;;;;;;5058901;28;19936;-72
2023/12/04 06:16:25;;;;;;;;;;;;;;;;;;5063044;28;20324;-72
2023/12/04 06:18:52;;;;;;;;;;;;;;;;;;5060641;28;19933;-74
2023/12/04 06:21:19;;;;;;;;;;;;;;;;;;5065495;28;19925;-73
2023/12/04 06:23:45;;;;;;;;;;;;;;;;;;5052904;28;19929;-74
2023/12/04 06:26:12;;;;;;;;;;;;;;;;;;5063240;28;19939;-74
2023/12/04 06:28:38;;;;;;;;;;;;;;;;;;5068320;28;20370;-74
2023/12/04 06:31:05;;;;;;;;;;;;;;;;;;5071566;28;19935;-74
2023/12/04 06:33:31;;;;;;;;;;;;;;;;;;5058493;28;20002;-74
2023/12/04 06:35:57;;;;;;;;;;;;;;;;;;5063089;28;19928;-74
2023/12/04 06:38:24;;;;;;;;;;;;;;;;;;5068465;28;20422;-72
2023/12/04 06:40:50;;;;;;;;;;;;;;;;;;5060639;28;19925;-72
2023/12/04 06:43:18;;;;;;;;;;;;;;;;;;5052361;28;19928;-72
2023/12/04 06:45:44;;;;;;;;;;;;;;;;;;5058260;28;19960;-72
2023/12/04 06:48:11;;;;;;;;;;;;;;;;;;5066664;28;19928;-71
2023/12/04 06:50:38;;;;;;;;;;;;;;;;;;5058718;28;20330;-72
2023/12/04 06:53:05;;;;;;;;;;;;;;;;;;5053267;28;19932;-72
2023/12/04 06:55:31;;;;;;;;;;;;;;;;;;5063679;28;19924;-73
2023/12/04 06:57:57;;;;;;;;;;;;;;;;;;5051756;28;20023;-73
2023/12/04 07:00:24;;;;;;;;;;;;;;;;;;5061909;28;19956;-72
2023/12/04 07:02:50;;;;;;;;;;;;;;;;;;5062889;28;19931;-73
2023/12/04 07:05:17;;;;;;;;;;;;;;;;;;5069024;28;19964;-73
2023/12/04 07:07:43;;;;;;;;;;;;;;;;;;5058477;28;19925;-73
2023/12/04 07:10:14;;;;;;;;;;;;;;;;;;5068465;28;19947;-73
2023/12/04 07:12:41;;;;;;;;;;;;;;;;;;5058735;28;20458;-74
2023/12/04 07:15:08;;;;;;;;;;;;;;;;;;5061910;28;20027;-74
2023/12/04 07:17:34;;;;;;;;;;;;;;;;;;5062737;28;19925;-72
2023/12/04 07:20:00;;;;;;;;;;;;;;;;;;5064884;28;19925;-72
2023/12/04 07:22:27;;;;;;;;;;;;;;;;;;5060231;28;20004;-74
2023/12/04 07:24:53;;;;;;;;;;;;;;;;;;5049968;28;19929;-72
2023/12/04 07:27:20;;;;;;;;;;;;;;;;;;5068048;28;19936;-74
2023/12/04 07:29:46;;;;;;;;;;;;;;;;;;5062359;28;19970;-73
2023/12/04 07:32:12;;;;;;;;;;;;;;;;;;5062684;28;19938;-73
2023/12/04 07:34:39;;;;;;;;;;;;;;;;;;5061080;28;19929;-74
2023/12/04 07:37:05;;;;;;;;;;;;;;;;;;5068042;28;19971;-72
2023/12/04 07:39:32;;;;;;;;;;;;;;;;;;5067352;28;20015;-71
2023/12/04 07:41:58;;;;;;;;;;;;;;;;;;5064993;28;19929;-72
2023/12/04 07:44:37;;;;;;;;;;;;;;;;;;5062240;28;19935;-73
2023/12/04 07:47:03;;;;;;;;;;;;;;;;;;5058841;28;20348;-71
2023/12/04 07:49:30;;;;;;;;;;;;;;;;;;5068445;28;19925;-75
2023/12/04 07:51:56;;;;;;;;;;;;;;;;;;5068469;28;19937;-71
2023/12/04 07:54:25;;;;;;;;;;;;;;;;;;5069509;28;19954;-72
2023/12/04 07:56:53;;;;;;;;;;;;;;;;;;5061179;28;20301;-73
2023/12/04 07:59:19;;;;;;;;;;;;;;;;;;5069081;28;19929;-73
2023/12/04 08:01:46;;;;;;;;;;;;;;;;;;5060192;28;19925;-71
2023/12/04 08:04:12;;;;;;;;;;;;;;;;;;5061144;28;19933;-72
2023/12/04 08:06:39;;;;;;;;;;;;;;;;;;5063080;28;19928;-73
2023/12/04 08:09:09;;;;;;;;;;;;;;;;;;5053474;28;19974;-73
2023/12/04 08:11:35;;;;;;;;;;;;;;;;;;5061493;28;20385;-73
2023/12/04 08:14:03;;;;;;;;;;;;;;;;;;5061625;28;19967;-75
2023/12/04 08:16:30;;;;;;;;;;;;;;;;;;5065639;28;19931;-71
2023/12/04 08:18:56;;;;;;;;;;;;;;;;;;5050856;28;19935;-73
2023/12/04 08:21:23;;;;;;;;;;;;;;;;;;5058986;28;20132;-72
2023/12/04 08:23:49;;;;;;;;;;;;;;;;;;5061379;28;19928;-71
2023/12/04 08:26:16;;;;;;;;;;;;;;;;;;5056494;28;19980;-71
2023/12/04 08:28:42;;;;;;;;;;;;;;;;;;5065689;28;19928;-72
2023/12/04 08:31:09;;;;;;;;;;;;;;;;;;5061711;28;20400;-73
2023/12/04 08:33:35;;;;;;;;;;;;;;;;;;5064828;28;19931;-71
2023/12/04 08:36:02;;;;;;;;;;;;;;;;;;5050588;28;19928;-72
2023/12/04 08:38:28;;;;;;;;;;;;;;;;;;5055313;28;19955;-72
2023/12/04 08:40:55;;;;;;;;;;;;;;;;;;5053442;28;19925;-72
2023/12/04 08:43:21;;;;;;;;;;;;;;;;;;5061974;28;19925;-72
2023/12/04 08:45:47;;;;;;;;;;;;;;;;;;5068150;28;19928;-71
2023/12/04 08:48:14;;;;;;;;;;;;;;;;;;5063737;28;19932;-70
2023/12/04 08:50:40;;;;;;;;;;;;;;;;;;5062064;28;20007;-73
2023/12/04 08:53:06;;;;;;;;;;;;;;;;;;5064018;28;19928;-71
2023/12/04 08:55:33;;;;;;;;;;;;;;;;;;5065064;28;19931;-71
2023/12/04 08:58:00;;;;;;;;;;;;;;;;;;5062611;28;19978;-72
2023/12/04 09:00:26;;;;;;;;;;;;;;;;;;5065037;28;20301;-72
2023/12/04 09:02:53;;;;;;;;;;;;;;;;;;5060680;28;20373;-74
2023/12/04 09:05:27;;;;;;;;;;;;;;;;;;5064736;28;19982;-72
2023/12/04 09:07:54;;;;;;;;;;;;;;;;;;5064041;28;20018;-72
2023/12/04 09:10:23;;;;;;;;;;;;;;;;;;5062305;28;19935;-71
2023/12/04 09:13:01;;;;;;;;;;;;;;;;;;5061895;28;19925;-72
2023/12/04 09:15:28;;;;;;;;;;;;;;;;;;5054923;28;19925;-73
2023/12/04 09:17:54;;;;;;;;;;;;;;;;;;5066471;28;19935;-73
2023/12/04 09:20:21;;;;;;;;;;;;;;;;;;5061596;28;20381;-72
2023/12/04 09:22:47;;;;;;;;;;;;;;;;;;5062547;28;20037;-71
2023/12/04 09:25:18;;;;;;;;;;;;;;;;;;5063319;28;19928;-72
2023/12/04 09:27:44;;;;;;;;;;;;;;;;;;5063072;28;19929;-71
2023/12/04 09:30:10;;;;;;;;;;;;;;;;;;5062974;28;19929;-71
2023/12/04 09:32:37;;;;;;;;;;;;;;;;;;5068169;28;20458;-74
2023/12/04 09:35:03;;;;;;;;;;;;;;;;;;5052591;28;19932;-73
2023/12/04 09:37:30;;;;;;;;;;;;;;;;;;5066627;28;20039;-71
2023/12/04 09:39:56;;;;;;;;;;;;;;;;;;5045670;28;19931;-74
2023/12/04 09:42:23;;;;;;;;;;;;;;;;;;5053730;28;20001;-73
2023/12/04 09:44:49;;;;;;;;;;;;;;;;;;5053569;28;19928;-72
2023/12/04 09:47:16;;;;;;;;;;;;;;;;;;5056302;28;19925;-73
2023/12/04 09:49:42;;;;;;;;;;;;;;;;;;5067060;28;19971;-72
2023/12/04 09:52:09;;;;;;;;;;;;;;;;;;5062573;28;20439;-71
2023/12/04 09:54:35;;;;;;;;;;;;;;;;;;5065664;28;19958;-72
2023/12/04 09:57:02;;;;;;;;;;;;;;;;;;5070190;28;20343;-73
2023/12/04 09:59:29;;;;;;;;;;;;;;;;;;5065101;28;19924;-74
2023/12/04 10:01:56;;;;;;;;;;;;;;;;;;5051885;28;20412;-71
2023/12/04 10:04:22;;;;;;;;;;;;;;;;;;5061815;28;20630;-71
2023/12/04 10:06:48;;;;;;;;;;;;;;;;;;5064726;28;19956;-74
2023/12/04 10:09:15;;;;;;;;;;;;;;;;;;5068565;28;20007;-71
2023/12/04 10:11:41;;;;;;;;;;;;;;;;;;5060803;28;19967;-72
2023/12/04 10:14:08;;;;;;;;;;;;;;;;;;5055761;28;20273;-73
2023/12/04 10:16:34;;;;;;;;;;;;;;;;;;5059012;28;20036;-71
2023/12/04 10:19:00;;;;;;;;;;;;;;;;;;5064143;28;19947;-72
2023/12/04 10:21:27;;;;;;;;;;;;;;;;;;5058896;28;19925;-71
2023/12/04 10:23:55;;;;;;;;;;;;;;;;;;5063680;28;19931;-73
2023/12/04 10:26:23;;;;;;;;;;;;;;;;;;5063422;28;20340;-72
2023/12/04 10:28:49;;;;;;;;;;;;;;;;;;5059882;28;19924;-71
2023/12/04 10:31:15;;;;;;;;;;;;;;;;;;5060445;28;19928;-73
2023/12/04 10:33:42;;;;;;;;;;;;;;;;;;5061362;28;19924;-73
2023/12/04 10:36:09;;;;;;;;;;;;;;;;;;5062237;28;19952;-72
2023/12/04 10:38:37;;;;;;;;;;;;;;;;;;5061542;28;19951;-75
2023/12/04 10:41:03;;;;;;;;;;;;;;;;;;5059683;28;19968;-74
2023/12/04 10:43:29;;;;;;;;;;;;;;;;;;5058524;28;19933;-73
2023/12/04 10:45:56;;;;;;;;;;;;;;;;;;5062595;28;19931;-72
2023/12/04 10:48:23;;;;;;;;;;;;;;;;;;5061740;28;19925;-73
2023/12/04 10:50:49;;;;;;;;;;;;;;;;;;5046841;28;19947;-73
2023/12/04 10:53:16;;;;;;;;;;;;;;;;;;5058824;28;19924;-71
2023/12/04 10:55:44;;;;;;;;;;;;;;;;;;5062137;28;20219;-73
2023/12/04 10:58:10;;;;;;;;;;;;;;;;;;5059582;28;19928;-72
2023/12/04 11:00:37;;;;;;;;;;;;;;;;;;5064307;28;19936;-73
2023/12/04 11:03:04;;;;;;;;;;;;;;;;;;5063244;28;20343;-73
2023/12/04 11:05:31;;;;;;;;;;;;;;;;;;5064320;28;19928;-74
2023/12/04 11:08:01;;;;;;;;;;;;;;;;;;5059529;28;20016;-73
2023/12/04 11:10:40;;;;;;;;;;;;;;;;;;5060000;28;20027;-74
2023/12/04 11:13:06;;;;;;;;;;;;;;;;;;5066358;28;20020;-74
2023/12/04 11:15:35;;;;;;;;;;;;;;;;;;5060947;28;19933;-73
2023/12/04 11:18:01;;;;;;;;;;;;;;;;;;5062860;28;19925;-72
2023/12/04 11:20:28;;;;;;;;;;;;;;;;;;5057747;28;19959;-74
2023/12/04 11:22:54;;;;;;;;;;;;;;;;;;5060613;28;20031;-73
2023/12/04 11:25:23;;;;;;;;;;;;;;;;;;5059819;28;19936;-71
2023/12/04 11:27:49;;;;;;;;;;;;;;;;;;5067981;28;19948;-72
2023/12/04 11:30:16;;;;;;;;;;;;;;;;;;5061995;28;19947;-72
2023/12/04 11:32:42;;;;;;;;;;;;;;;;;;5059465;28;19924;-72
2023/12/04 11:35:09;;;;;;;;;;;;;;;;;;5048536;28;19929;-72
2023/12/04 11:37:35;;;;;;;;;;;;;;;;;;5061597;28;19962;-73
2023/12/04 11:40:02;;;;;;;;;;;;;;;;;;5066831;28;19990;-72
2023/12/04 11:42:29;;;;;;;;;;;;;;;;;;5069772;28;20415;-74
2023/12/04 11:44:55;;;;;;;;;;;;;;;;;;5063940;28;19960;-72
2023/12/04 11:47:21;;;;;;;;;;;;;;;;;;5060513;28;19924;-75
2023/12/04 11:49:48;;;;;;;;;;;;;;;;;;5061832;28;20293;-72
2023/12/04 11:52:14;;;;;;;;;;;;;;;;;;5054813;28;20366;-72
2023/12/04 11:54:40;;;;;;;;;;;;;;;;;;5067417;28;20028;-72
2023/12/04 11:57:07;;;;;;;;;;;;;;;;;;5043883;28;19970;-74
2023/12/04 11:59:34;;;;;;;;;;;;;;;;;;5059451;28;20377;-72
2023/12/04 12:02:00;;;;;;;;;;;;;;;;;;5061126;28;20004;-74
2023/12/04 12:04:26;;;;;;;;;;;;;;;;;;5061739;28;19924;-73
2023/12/04 12:06:56;;;;;;;;;;;;;;;;;;5064182;28;20415;-73
2023/12/04 12:09:22;;;;;;;;;;;;;;;;;;5067812;28;19928;-74
2023/12/04 12:11:49;;;;;;;;;;;;;;;;;;5047745;28;19924;-74
2023/12/04 12:14:15;;;;;;;;;;;;;;;;;;5069369;28;19932;-74
2023/12/04 12:16:41;;;;;;;;;;;;;;;;;;5061031;28;19956;-74
2023/12/04 12:19:08;;;;;;;;;;;;;;;;;;5069312;28;19931;-74
2023/12/04 12:21:34;;;;;;;;;;;;;;;;;;5063450;28;19974;-75
2023/12/04 12:24:01;;;;;;;;;;;;;;;;;;5066296;28;20015;-73
2023/12/04 12:26:27;;;;;;;;;;;;;;;;;;5062117;28;19955;-75
2023/12/04 12:28:53;;;;;;;;;;;;;;;;;;5065216;28;20308;-75
2023/12/04 12:31:20;;;;;;;;;;;;;;;;;;5068762;28;20351;-75
2023/12/04 12:33:46;;;;;;;;;;;;;;;;;;5065891;28;19986;-75
2023/12/04 12:36:13;;;;;;;;;;;;;;;;;;5067387;28;19924;-74
2023/12/04 12:38:39;;;;;;;;;;;;;;;;;;5073550;28;19924;-75
2023/12/04 12:41:06;;;;;;;;;;;;;;;;;;5060527;28;19928;-75
2023/12/04 12:43:33;;;;;;;;;;;;;;;;;;5063857;28;19935;-74
2023/12/04 12:45:59;;;;;;;;;;;;;;;;;;5069607;28;19964;-75
2023/12/04 12:48:26;;;;;;;;;;;;;;;;;;5061999;28;20290;-75
2023/12/04 12:50:54;;;;;;;;;;;;;;;;;;5059962;28;19932;-76
2023/12/04 12:53:20;;;;;;;;;;;;;;;;;;5055339;28;19931;-75
2023/12/04 12:55:46;;;;;;;;;;;;;;;;;;5066109;28;19924;-75
2023/12/04 12:58:13;;;;;;;;;;;;;;;;;;5070355;28;20012;-75
2023/12/04 13:00:40;;;;;;;;;;;;;;;;;;5064346;28;19929;-74
2023/12/04 13:03:07;;;;;;;;;;;;;;;;;;5064214;28;20353;-76
2023/12/04 13:05:33;;;;;;;;;;;;;;;;;;5070528;28;20381;-77
2023/12/04 13:08:01;;;;;;;;;;;;;;;;;;5061704;28;19986;-79
2023/12/04 13:10:27;;;;;;;;;;;;;;;;;;5073002;28;19962;-75
2023/12/04 13:12:56;;;;;;;;;;;;;;;;;;5069720;28;20016;-77
2023/12/04 13:15:22;;;;;;;;;;;;;;;;;;5048851;28;19932;-78
2023/12/04 13:17:49;;;;;;;;;;;;;;;;;;5067964;28;20362;-80
2023/12/04 13:20:16;;;;;;;;;;;;;;;;;;5065459;28;19940;-78
2023/12/04 13:22:43;;;;;;;;;;;;;;;;;;5070074;28;19979;-79
2023/12/04 13:25:09;;;;;;;;;;;;;;;;;;5064458;28;19925;-79
2023/12/04 13:27:38;;;;;;;;;;;;;;;;;;5061294;28;20020;-79
2023/12/04 13:30:05;;;;;;;;;;;;;;;;;;5062510;28;20431;-80
2023/12/04 13:32:33;;;;;;;;;;;;;;;;;;5072087;28;20409;-78
2023/12/04 13:35:00;;;;;;;;;;;;;;;;;;5066374;28;20361;-80
2023/12/04 13:37:28;;;;;;;;;;;;;;;;;;5069763;28;19928;-78
2023/12/04 13:39:58;;;;;;;;;;;;;;;;;;5063256;28;19969;-81
2023/12/04 13:45:09;;;;;;;;;;;;;;;;;;5072343;28;19925;-78
2023/12/04 13:47:36;;;;;;;;;;;;;;;;;;5063908;28;20381;-80
2023/12/04 13:50:03;;;;;;;;;;;;;;;;;;5056643;28;19925;-79
2023/12/04 13:52:33;;;;;;;;;;;;;;;;;;5059245;28;19929;-79
2023/12/04 13:55:00;;;;;;;;;;;;;;;;;;5069331;28;19967;-80
2023/12/04 13:57:28;;;;;;;;;;;;;;;;;;5061923;28;19928;-80
2023/12/04 13:59:57;;;;;;;;;;;;;;;;;;5060532;28;20018;-81
2023/12/04 14:02:24;;;;;;;;;;;;;;;;;;5066209;28;19994;-79
2023/12/04 14:04:51;;;;;;;;;;;;;;;;;;5071582;28;19960;-76
2023/12/04 14:07:18;;;;;;;;;;;;;;;;;;5071683;28;20305;-75
2023/12/04 14:09:45;;;;;;;;;;;;;;;;;;5059624;28;19929;-77
2023/12/04 14:12:11;;;;;;;;;;;;;;;;;;5080862;28;20436;-81
2023/12/04 14:14:38;;;;;;;;;;;;;;;;;;5060838;28;19928;-74
2023/12/04 14:17:07;;;;;;;;;;;;;;;;;;5063254;28;19924;-74
2023/12/04 14:19:33;;;;;;;;;;;;;;;;;;5061150;28;19967;-76
2023/12/04 14:22:00;;;;;;;;;;;;;;;;;;5070265;28;19931;-75
2023/12/04 14:24:26;;;;;;;;;;;;;;;;;;5063394;28;19925;-77
2023/12/04 14:26:56;;;;;;;;;;;;;;;;;;5069317;28;19932;-78
2023/12/04 14:29:22;;;;;;;;;;;;;;;;;;5061693;28;19924;-75
2023/12/04 14:31:50;;;;;;;;;;;;;;;;;;5059519;28;19925;-78
2023/12/04 14:34:16;;;;;;;;;;;;;;;;;;5065771;28;19931;-75
2023/12/04 14:36:43;;;;;;;;;;;;;;;;;;5062277;28;19925;-74
2023/12/04 14:39:10;;;;;;;;;;;;;;;;;;5063544;28;19931;-75
2023/12/04 14:41:37;;;;;;;;;;;;;;;;;;5060082;28;19978;-75
2023/12/04 14:44:03;;;;;;;;;;;;;;;;;;5053072;28;19931;-78
2023/12/04 14:46:29;;;;;;;;;;;;;;;;;;5058745;28;19931;-76
2023/12/04 14:48:56;;;;;;;;;;;;;;;;;;5056882;28;19983;-77
2023/12/04 14:51:24;;;;;;;;;;;;;;;;;;5047362;28;19967;-75
2023/12/04 14:53:51;;;;;;;;;;;;;;;;;;5062571;28;19967;-77
2023/12/04 15:00:25;;;;;;;;;;;;;;;;;;5068963;28;19924;-73
2023/12/04 15:02:46;;;;;;;;;;;;;;;;;;5058493;28;19931;-77
2023/12/04 15:17:56;;;;;;;;;;;;;;;;;;5063234;28;20015;-75
2023/12/04 15:20:36;;;;;;;;;;;;;;;;;;5062554;28;19947;-78
2023/12/04 15:23:04;;;;;;;;;;;;;;;;;;5076175;28;20407;-76
2023/12/04 15:25:31;;;;;;;;;;;;;;;;;;5051569;28;20377;-77
2023/12/04 15:27:58;;;;;;;;;;;;;;;;;;5064762;28;20020;-77
2023/12/04 15:30:24;;;;;;;;;;;;;;;;;;5071448;28;20561;-77
2023/12/04 15:32:52;;;;;;;;;;;;;;;;;;5064840;28;19974;-75
2023/12/04 15:35:18;;;;;;;;;;;;;;;;;;5061762;28;20315;-77
2023/12/04 15:37:45;;;;;;;;;;;;;;;;;;5058959;28;19928;-76
2023/12/04 15:40:11;;;;;;;;;;;;;;;;;;5054424;28;19931;-78
2023/12/04 15:42:38;;;;;;;;;;;;;;;;;;5057033;28;19925;-76
2023/12/04 15:45:05;;;;;;;;;;;;;;;;;;5069500;28;19982;-73
2023/12/04 15:47:32;;;;;;;;;;;;;;;;;;5065441;28;19955;-75
2023/12/04 15:49:59;;;;;;;;;;;;;;;;;;5060488;28;19990;-75
2023/12/04 15:52:26;;;;;;;;;;;;;;;;;;5060589;28;19935;-75
2023/12/04 15:54:54;;;;;;;;;;;;;;;;;;5054594;28;19932;-73
2023/12/04 15:57:20;;;;;;;;;;;;;;;;;;5070785;28;19925;-74
2023/12/04 15:59:46;;;;;;;;;;;;;;;;;;5054343;28;20021;-73
2023/12/04 16:02:13;;;;;;;;;;;;;;;;;;5055858;28;19946;-73
2023/12/04 16:04:40;;;;;;;;;;;;;;;;;;5056974;28;19979;-76
2023/12/04 16:07:06;;;;;;;;;;;;;;;;;;5068553;28;20014;-75
2023/12/04 16:09:33;;;;;;;;;;;;;;;;;;5055483;28;19960;-74
2023/12/04 16:11:59;;;;;;;;;;;;;;;;;;5058739;28;19933;-75
2023/12/04 16:14:26;;;;;;;;;;;;;;;;;;5063128;28;20325;-75
2023/12/04 16:16:52;;;;;;;;;;;;;;;;;;5056023;28;19928;-73
2023/12/04 16:19:19;;;;;;;;;;;;;;;;;;5061543;28;19929;-75
2023/12/04 16:21:45;;;;;;;;;;;;;;;;;;5067812;28;19983;-74
2023/12/04 16:24:12;;;;;;;;;;;;;;;;;;5065390;28;19925;-75
2023/12/04 16:26:38;;;;;;;;;;;;;;;;;;5072718;28;20331;-75
2023/12/04 16:29:05;;;;;;;;;;;;;;;;;;5066832;28;19955;-75
2023/12/04 16:31:31;;;;;;;;;;;;;;;;;;5071770;28;19994;-74
2023/12/04 16:33:58;;;;;;;;;;;;;;;;;;5061330;28;19924;-74
2023/12/04 16:36:25;;;;;;;;;;;;;;;;;;5070802;28;19940;-74
2023/12/04 16:38:52;;;;;;;;;;;;;;;;;;5066503;28;19964;-75
2023/12/04 16:41:19;;;;;;;;;;;;;;;;;;5070485;28;19966;-72
2023/12/04 16:43:45;;;;;;;;;;;;;;;;;;5053363;28;19979;-75
2023/12/04 16:46:12;;;;;;;;;;;;;;;;;;5066790;28;19925;-74
2023/12/04 16:48:38;;;;;;;;;;;;;;;;;;5068303;28;19935;-75
2023/12/04 16:51:05;;;;;;;;;;;;;;;;;;5068699;28;19933;-76
2023/12/04 16:53:31;;;;;;;;;;;;;;;;;;5072830;28;20374;-75
2023/12/04 16:55:58;;;;;;;;;;;;;;;;;;5072426;28;20389;-74
2023/12/04 16:58:24;;;;;;;;;;;;;;;;;;5065936;28;20354;-75
2023/12/04 17:00:50;;;;;;;;;;;;;;;;;;5070087;28;19928;-73